createdAt,value
2019-01-30T00:00:35.542Z,1.40
2019-01-30T00:03:05.375Z,1.30
2019-01-30T00:05:34.467Z,1.30
2019-01-30T00:08:03.493Z,1.30
2019-01-30T00:10:32.331Z,1.30
2019-01-30T00:13:01.074Z,1.30
2019-01-30T00:15:30.036Z,1.30
2019-01-30T00:17:58.883Z,1.30
2019-01-30T00:20:27.921Z,1.30
2019-01-30T00:22:56.613Z,1.30
2019-01-30T00:25:25.589Z,1.20
2019-01-30T00:27:54.391Z,1.30
2019-01-30T00:30:25.142Z,1.30
2019-01-30T00:32:54.791Z,1.20
2019-01-30T00:35:23.533Z,1.20
2019-01-30T00:37:52.491Z,1.20
2019-01-30T00:40:21.864Z,1.20
2019-01-30T00:42:50.783Z,1.20
2019-01-30T00:45:19.624Z,1.10
2019-01-30T00:47:48.435Z,1.10
2019-01-30T00:50:17.436Z,1.10
2019-01-30T00:52:47.402Z,1.00
2019-01-30T00:55:16.220Z,1.00
2019-01-30T00:57:44.976Z,1.10
2019-01-30T01:00:21.197Z,1.10
2019-01-30T01:02:50.509Z,1.10
2019-01-30T01:05:20.023Z,1.00
2019-01-30T01:07:49.185Z,1.00
2019-01-30T01:10:18.555Z,1.00
2019-01-30T01:12:48.444Z,1.00
2019-01-30T01:15:17.661Z,0.90
2019-01-30T01:17:46.905Z,1.00
2019-01-30T01:20:16.075Z,1.00
2019-01-30T01:22:45.433Z,1.00
2019-01-30T01:25:16.068Z,0.90
2019-01-30T01:27:44.990Z,1.00
2019-01-30T01:30:24.820Z,0.90
2019-01-30T01:32:48.606Z,1.00
2019-01-30T01:35:17.635Z,0.90
2019-01-30T01:37:46.651Z,0.90
2019-01-30T01:40:16.255Z,1.00
2019-01-30T01:42:47.286Z,1.00
2019-01-30T01:45:19.639Z,0.90
2019-01-30T01:47:48.520Z,0.90
2019-01-30T01:50:20.644Z,0.90
2019-01-30T01:52:49.766Z,0.90
2019-01-30T01:55:19.187Z,0.90
2019-01-30T01:57:48.191Z,0.80
2019-01-30T02:00:20.225Z,0.90
2019-01-30T02:02:49.008Z,0.80
2019-01-30T02:05:21.732Z,0.90
2019-01-30T02:07:51.108Z,0.90
2019-01-30T02:10:22.243Z,0.90
2019-01-30T02:12:51.563Z,0.90
2019-01-30T02:15:22.443Z,0.90
2019-01-30T02:17:51.732Z,0.90
2019-01-30T02:20:26.362Z,0.90
2019-01-30T02:22:55.807Z,0.90
2019-01-30T02:25:24.568Z,0.90
2019-01-30T02:27:53.432Z,0.90
2019-01-30T02:30:24.551Z,0.90
2019-01-30T02:32:54.513Z,0.90
2019-01-30T02:35:23.605Z,0.90
2019-01-30T02:37:52.937Z,0.80
2019-01-30T02:40:22.318Z,0.90
2019-01-30T02:42:51.235Z,0.90
2019-01-30T02:45:23.158Z,0.90
2019-01-30T02:47:52.050Z,0.90
2019-01-30T02:50:20.979Z,0.90
2019-01-30T02:52:50.361Z,0.90
2019-01-30T02:55:19.741Z,0.90
2019-01-30T02:57:48.573Z,0.90
2019-01-30T03:00:30.040Z,0.90
2019-01-30T03:02:58.967Z,0.90
2019-01-30T03:05:28.552Z,0.90
2019-01-30T03:07:57.667Z,0.90
2019-01-30T03:10:26.426Z,0.90
2019-01-30T03:12:55.272Z,0.80
2019-01-30T03:15:24.591Z,0.80
2019-01-30T03:17:53.441Z,0.80
2019-01-30T03:20:24.644Z,0.80
2019-01-30T03:22:53.882Z,0.80
2019-01-30T03:25:26.291Z,0.80
2019-01-30T03:27:55.244Z,0.80
2019-01-30T03:30:29.216Z,0.70
2019-01-30T03:32:58.142Z,0.70
2019-01-30T03:35:27.206Z,0.60
2019-01-30T03:37:55.966Z,0.60
2019-01-30T03:40:25.239Z,0.60
2019-01-30T03:42:54.135Z,0.60
2019-01-30T03:45:23.586Z,0.60
2019-01-30T03:47:52.449Z,0.70
2019-01-30T03:50:21.252Z,0.60
2019-01-30T03:52:50.408Z,0.60
2019-01-30T03:55:19.242Z,0.60
2019-01-30T03:57:48.277Z,0.60
2019-01-30T04:00:19.745Z,0.60
2019-01-30T04:02:49.046Z,0.60
2019-01-30T04:05:18.540Z,0.60
2019-01-30T04:07:47.293Z,0.60
2019-01-30T04:10:19.939Z,0.60
2019-01-30T04:12:48.755Z,0.60
2019-01-30T04:15:17.635Z,0.60
2019-01-30T04:17:47.463Z,0.70
2019-01-30T04:20:18.492Z,0.70
2019-01-30T04:22:47.750Z,0.60
2019-01-30T04:25:16.722Z,0.60
2019-01-30T04:27:45.474Z,0.60
2019-01-30T04:30:17.785Z,0.60
2019-01-30T04:32:46.532Z,0.60
2019-01-30T04:35:15.781Z,0.60
2019-01-30T04:37:44.767Z,0.70
2019-01-30T04:40:16.122Z,0.60
2019-01-30T04:42:44.864Z,0.60
2019-01-30T04:45:19.991Z,0.60
2019-01-30T04:47:48.712Z,0.60
2019-01-30T04:50:17.427Z,0.60
2019-01-30T04:52:46.288Z,0.60
2019-01-30T04:55:15.900Z,0.60
2019-01-30T04:57:44.784Z,0.50
2019-01-30T05:00:17.197Z,0.50
2019-01-30T05:02:45.888Z,0.50
2019-01-30T05:05:14.873Z,0.50
2019-01-30T05:07:43.615Z,0.50
2019-01-30T05:10:12.848Z,0.50
2019-01-30T05:12:41.709Z,0.60
2019-01-30T05:15:14.705Z,0.60
2019-01-30T05:17:43.367Z,0.60
2019-01-30T05:20:14.025Z,0.60
2019-01-30T05:22:44.242Z,0.60
2019-01-30T05:25:14.570Z,0.60
2019-01-30T05:27:43.488Z,0.60
2019-01-30T05:30:20.240Z,0.60
2019-01-30T05:32:49.053Z,0.60
2019-01-30T05:35:18.011Z,0.60
2019-01-30T05:37:46.956Z,0.60
2019-01-30T05:40:16.333Z,0.60
2019-01-30T05:42:45.089Z,0.60
2019-01-30T05:45:15.452Z,0.60
2019-01-30T05:47:44.513Z,0.60
2019-01-30T05:50:13.640Z,0.50
2019-01-30T05:52:42.439Z,0.60
2019-01-30T05:55:12.614Z,0.50
2019-01-30T05:57:41.667Z,0.50
2019-01-30T06:00:17.096Z,0.50
2019-01-30T06:02:45.933Z,0.50
2019-01-30T06:05:14.854Z,0.50
2019-01-30T06:07:43.614Z,0.50
2019-01-30T06:10:12.647Z,0.50
2019-01-30T06:12:41.495Z,0.50
2019-01-30T06:15:12.555Z,0.50
2019-01-30T06:17:41.245Z,0.50
2019-01-30T06:20:18.109Z,0.50
2019-01-30T06:22:48.143Z,0.50
2019-01-30T06:25:16.909Z,0.50
2019-01-30T06:27:45.704Z,0.50
2019-01-30T06:30:16.547Z,0.50
2019-01-30T06:32:45.240Z,0.50
2019-01-30T06:35:14.202Z,0.40
2019-01-30T06:37:43.017Z,0.40
2019-01-30T06:40:16.919Z,0.50
2019-01-30T06:42:45.731Z,0.40
2019-01-30T06:45:14.984Z,0.40
2019-01-30T06:47:50.233Z,0.50
2019-01-30T06:50:19.056Z,0.40
2019-01-30T06:52:48.340Z,0.40
2019-01-30T06:55:17.025Z,0.40
2019-01-30T06:57:46.888Z,0.30
2019-01-30T07:00:23.473Z,0.30
2019-01-30T07:02:52.475Z,0.30
2019-01-30T07:05:21.442Z,0.40
2019-01-30T07:07:50.588Z,0.30
2019-01-30T07:10:26.321Z,0.40
2019-01-30T07:12:56.292Z,0.40
2019-01-30T07:15:25.344Z,0.40
2019-01-30T07:17:54.111Z,0.40
2019-01-30T07:20:23.233Z,0.40
2019-01-30T07:22:52.079Z,0.40
2019-01-30T07:25:21.603Z,0.40
2019-01-30T07:27:50.539Z,0.40
2019-01-30T07:30:30.032Z,0.40
2019-01-30T07:32:59.036Z,0.40
2019-01-30T07:35:28.430Z,0.40
2019-01-30T07:37:58.723Z,0.40
2019-01-30T07:40:27.691Z,0.50
2019-01-30T07:42:56.497Z,0.50
2019-01-30T07:45:28.452Z,0.50
2019-01-30T07:47:57.219Z,0.60
2019-01-30T07:50:32.105Z,0.60
2019-01-30T07:53:00.987Z,0.60
2019-01-30T07:55:29.716Z,0.60
2019-01-30T07:57:58.579Z,0.60
2019-01-30T08:00:31.589Z,0.60
2019-01-30T08:03:00.416Z,0.60
2019-01-30T08:05:29.241Z,0.60
2019-01-30T08:07:57.901Z,0.70
2019-01-30T08:10:26.712Z,0.60
2019-01-30T08:12:55.565Z,0.70
2019-01-30T08:15:25.254Z,0.70
2019-01-30T08:17:54.287Z,0.70
2019-01-30T08:20:23.059Z,0.70
2019-01-30T08:22:52.295Z,0.80
2019-01-30T08:25:23.053Z,0.80
2019-01-30T08:27:52.813Z,0.90
2019-01-30T08:30:28.768Z,0.90
2019-01-30T08:33:04.763Z,0.80
2019-01-30T08:35:33.436Z,0.80
2019-01-30T08:38:02.487Z,0.80
2019-01-30T08:40:31.316Z,0.80
2019-01-30T08:43:00.101Z,0.90
2019-01-30T08:45:31.502Z,0.90
2019-01-30T08:48:01.425Z,0.90
2019-01-30T08:50:30.878Z,0.90
2019-01-30T08:52:59.702Z,0.90
2019-01-30T08:55:28.637Z,0.80
2019-01-30T08:57:57.827Z,0.90
2019-01-30T09:00:28.413Z,0.90
2019-01-30T09:02:57.117Z,0.80
2019-01-30T09:05:26.017Z,0.80
2019-01-30T09:07:55.099Z,0.90
2019-01-30T09:10:24.964Z,0.80
2019-01-30T09:12:54.170Z,0.80
2019-01-30T09:15:27.193Z,0.80
2019-01-30T09:17:57.552Z,1.00
2019-01-30T09:20:26.847Z,0.90
2019-01-30T09:22:55.873Z,1.00
2019-01-30T09:25:27.700Z,0.90
2019-01-30T09:27:56.767Z,1.00
2019-01-30T09:30:31.439Z,1.00
2019-01-30T09:33:00.264Z,1.00
2019-01-30T09:35:29.332Z,0.90
2019-01-30T09:37:58.421Z,1.20
2019-01-30T09:40:27.291Z,1.00
2019-01-30T09:42:56.063Z,1.10
2019-01-30T09:45:25.297Z,1.00
2019-01-30T09:47:54.074Z,1.00
2019-01-30T09:50:26.722Z,1.00
2019-01-30T09:52:55.572Z,1.00
2019-01-30T09:55:24.589Z,1.10
2019-01-30T09:57:54.591Z,1.00
2019-01-30T10:00:29.621Z,1.10
2019-01-30T10:02:58.541Z,1.10
2019-01-30T10:05:27.408Z,1.10
2019-01-30T10:07:56.628Z,1.10
2019-01-30T10:10:35.120Z,1.10
2019-01-30T10:13:04.619Z,1.10
2019-01-30T10:15:36.455Z,1.20
2019-01-30T10:18:05.879Z,1.20
2019-01-30T10:20:35.489Z,1.20
2019-01-30T10:23:04.786Z,1.20
2019-01-30T10:25:33.640Z,1.10
2019-01-30T10:28:03.003Z,1.20
2019-01-30T10:30:34.123Z,1.20
2019-01-30T10:33:02.896Z,1.10
2019-01-30T10:35:47.361Z,1.10
2019-01-30T10:38:16.281Z,1.10
2019-01-30T10:40:45.041Z,1.10
2019-01-30T10:43:14.100Z,1.10
2019-01-30T10:45:42.899Z,1.10
2019-01-30T10:48:14.545Z,1.10
2019-01-30T10:50:43.684Z,1.10
2019-01-30T10:53:12.553Z,1.10
2019-01-30T10:55:41.624Z,1.20
2019-01-30T10:58:14.912Z,1.20
2019-01-30T11:00:53.768Z,1.30
2019-01-30T11:03:22.743Z,1.30
2019-01-30T11:05:52.059Z,1.30
2019-01-30T11:08:20.927Z,1.30
2019-01-30T11:10:50.983Z,1.30
2019-01-30T11:13:20.972Z,1.40
2019-01-30T11:15:50.056Z,1.40
2019-01-30T11:18:19.317Z,1.40
2019-01-30T11:20:48.128Z,1.30
2019-01-30T11:23:17.154Z,1.30
2019-01-30T11:25:49.214Z,1.30
2019-01-30T11:28:18.051Z,1.30
2019-01-30T11:30:49.940Z,1.30
2019-01-30T11:33:18.831Z,1.20
2019-01-30T11:35:47.573Z,1.30
2019-01-30T11:38:16.507Z,1.30
2019-01-30T11:40:45.444Z,1.30
2019-01-30T11:43:14.414Z,1.30
2019-01-30T11:45:48.001Z,1.40
2019-01-30T11:48:16.836Z,1.50
2019-01-30T11:50:45.812Z,1.60
2019-01-30T11:53:15.010Z,1.50
2019-01-30T11:55:44.092Z,1.60
2019-01-30T11:58:26.966Z,1.80
2019-01-30T12:02:01.236Z,1.80
2019-01-30T12:08:08.172Z,1.80
2019-01-30T12:10:56.998Z,1.80
2019-01-30T12:14:16.294Z,2.10
2019-01-30T12:17:04.506Z,2.00
2019-01-30T12:19:54.922Z,1.90
2019-01-30T12:22:26.401Z,1.90
2019-01-30T12:25:01.336Z,1.90
2019-01-30T12:27:40.874Z,2.00
2019-01-30T12:30:40.761Z,2.00
2019-01-30T12:33:26.583Z,2.10
2019-01-30T12:36:02.005Z,2.10
2019-01-30T12:38:58.240Z,2.00
2019-01-30T12:42:04.227Z,2.10
2019-01-30T12:44:49.853Z,2.00
2019-01-30T12:47:34.563Z,2.10
2019-01-30T12:50:39.707Z,2.10
2019-01-30T12:53:27.412Z,2.20
2019-01-30T12:56:04.112Z,2.20
2019-01-30T12:58:33.529Z,2.20
2019-01-30T13:04:07.208Z,2.30
2019-01-30T13:06:35.941Z,3.40
2019-01-30T13:09:09.383Z,3.70
2019-01-30T13:11:38.379Z,4.10
2019-01-30T13:14:07.250Z,4.50
2019-01-30T13:16:36.027Z,4.40
2019-01-30T13:19:04.855Z,4.70
2019-01-30T13:21:33.842Z,4.40
2019-01-30T13:24:02.543Z,4.30
2019-01-30T13:26:31.474Z,4.20
2019-01-30T13:29:00.569Z,4.30
2019-01-30T13:31:29.276Z,4.10
2019-01-30T13:33:58.504Z,4.40
2019-01-30T13:36:27.505Z,4.50
2019-01-30T13:38:57.201Z,4.10
2019-01-30T13:41:26.030Z,4.10
2019-01-30T13:43:54.763Z,4.40
2019-01-30T13:46:24.084Z,4.40
2019-01-30T13:48:52.851Z,4.50
2019-01-30T13:51:21.983Z,4.50
2019-01-30T13:53:50.879Z,4.60
2019-01-30T13:56:19.870Z,4.70
2019-01-30T13:58:48.591Z,4.70
2019-01-30T14:01:17.984Z,4.60
2019-01-30T14:03:48.255Z,4.60
2019-01-30T14:06:17.500Z,4.10
2019-01-30T14:08:46.344Z,3.50
2019-01-30T14:11:15.251Z,3.10
2019-01-30T14:13:44.231Z,3.00
2019-01-30T14:16:13.080Z,3.30
2019-01-30T14:18:41.886Z,3.60
2019-01-30T14:21:10.970Z,3.10
2019-01-30T14:23:39.746Z,2.80
2019-01-30T14:26:08.533Z,2.60
2019-01-30T14:28:37.477Z,2.50
2019-01-30T14:31:06.752Z,2.30
2019-01-30T14:33:35.514Z,2.20
2019-01-30T14:36:04.597Z,2.20
2019-01-30T14:38:33.406Z,2.20
2019-01-30T14:41:02.201Z,2.20
2019-01-30T14:43:31.166Z,2.10
2019-01-30T14:46:00.006Z,2.10
2019-01-30T14:48:28.904Z,2.10
2019-01-30T14:50:58.177Z,2.10
2019-01-30T14:53:26.945Z,1.90
2019-01-30T14:55:56.917Z,1.90
2019-01-30T14:58:26.059Z,2.00
2019-01-30T15:00:54.812Z,2.20
2019-01-30T15:03:23.583Z,3.20
2019-01-30T15:05:52.381Z,3.70
2019-01-30T15:08:21.418Z,3.40
2019-01-30T15:10:50.444Z,2.80
2019-01-30T15:13:19.170Z,2.50
2019-01-30T15:15:47.984Z,2.40
2019-01-30T15:18:16.846Z,2.30
2019-01-30T15:20:46.364Z,2.20
2019-01-30T15:23:15.058Z,2.10
2019-01-30T15:25:43.920Z,2.10
2019-01-30T15:28:12.666Z,2.00
2019-01-30T15:30:45.460Z,2.00
2019-01-30T15:33:14.995Z,2.00
2019-01-30T15:35:44.132Z,2.00
2019-01-30T15:38:20.536Z,2.00
2019-01-30T15:40:48.213Z,1.90
2019-01-30T15:43:17.025Z,1.90
2019-01-30T15:45:45.866Z,1.90
2019-01-30T15:48:14.760Z,1.90
2019-01-30T15:50:44.460Z,1.90
2019-01-30T15:53:16.638Z,2.40
2019-01-30T15:55:45.404Z,2.80
2019-01-30T15:58:14.369Z,2.50
2019-01-30T16:00:46.593Z,2.30
2019-01-30T16:03:15.336Z,2.00
2019-01-30T16:05:45.389Z,2.00
2019-01-30T16:08:14.390Z,1.90
2019-01-30T16:10:43.263Z,1.80
2019-01-30T16:13:12.152Z,1.80
2019-01-30T16:15:47.195Z,1.80
2019-01-30T16:18:16.514Z,1.80
2019-01-30T16:20:45.234Z,1.70
2019-01-30T16:23:15.276Z,1.70
2019-01-30T16:25:44.001Z,1.70
2019-01-30T16:28:13.085Z,1.60
2019-01-30T16:30:44.965Z,1.50
2019-01-30T16:33:13.710Z,1.50
2019-01-30T16:35:42.542Z,1.50
2019-01-30T16:38:11.729Z,1.40
2019-01-30T16:40:40.789Z,1.40
2019-01-30T16:43:09.944Z,1.40
2019-01-30T16:45:38.797Z,1.40
2019-01-30T16:48:09.227Z,1.40
2019-01-30T16:50:38.135Z,1.40
2019-01-30T16:53:08.360Z,1.40
2019-01-30T16:55:37.942Z,1.30
2019-01-30T16:58:11.116Z,1.30
2019-01-30T17:00:40.131Z,1.30
2019-01-30T17:03:09.464Z,1.30
2019-01-30T17:05:38.401Z,1.30
2019-01-30T17:08:08.466Z,1.30
2019-01-30T17:10:39.061Z,1.30
2019-01-30T17:13:08.216Z,1.20
2019-01-30T17:15:38.897Z,1.30
2019-01-30T17:18:09.500Z,1.20
2019-01-30T17:20:40.738Z,1.20
2019-01-30T17:23:09.655Z,1.20
2019-01-30T17:25:39.044Z,1.20
2019-01-30T17:28:07.995Z,1.20
2019-01-30T17:30:41.133Z,1.10
2019-01-30T17:33:10.933Z,1.10
2019-01-30T17:35:41.775Z,1.20
2019-01-30T17:38:11.081Z,1.10
2019-01-30T17:40:41.293Z,1.20
2019-01-30T17:43:10.604Z,1.20
2019-01-30T17:45:39.493Z,1.10
2019-01-30T17:48:19.560Z,1.10
2019-01-30T17:50:48.869Z,1.10
2019-01-30T17:53:17.919Z,1.10
2019-01-30T17:55:46.882Z,1.10
2019-01-30T17:58:15.602Z,1.10
2019-01-30T18:01:03.966Z,1.10
2019-01-30T18:03:32.957Z,1.10
2019-01-30T18:06:01.928Z,1.10
2019-01-30T18:08:30.689Z,1.10
2019-01-30T18:10:59.593Z,1.10
2019-01-30T18:13:28.596Z,1.00
2019-01-30T18:15:57.988Z,1.00
2019-01-30T18:18:26.976Z,1.10
2019-01-30T18:20:55.969Z,1.10
2019-01-30T18:23:24.881Z,1.10
2019-01-30T18:25:53.676Z,1.10
2019-01-30T18:28:32.830Z,1.10
2019-01-30T18:30:52.968Z,1.10
2019-01-30T18:33:21.760Z,1.10
2019-01-30T18:35:50.668Z,1.10
2019-01-30T18:38:19.725Z,1.10
2019-01-30T18:40:48.499Z,1.30
2019-01-30T18:43:18.446Z,1.40
2019-01-30T18:45:49.554Z,1.40
2019-01-30T18:48:18.329Z,1.40
2019-01-30T18:50:47.125Z,1.40
2019-01-30T18:53:16.130Z,1.40
2019-01-30T18:55:45.013Z,1.30
2019-01-30T18:58:13.755Z,1.20
2019-01-30T19:00:48.950Z,1.20
2019-01-30T19:03:20.851Z,1.20
2019-01-30T19:05:50.762Z,1.20
2019-01-30T19:08:19.572Z,1.20
2019-01-30T19:10:48.391Z,1.20
2019-01-30T19:13:17.252Z,1.20
2019-01-30T19:15:46.184Z,1.20
2019-01-30T19:18:16.249Z,1.20
2019-01-30T19:20:48.333Z,1.20
2019-01-30T19:23:17.556Z,1.20
2019-01-30T19:25:46.888Z,1.10
2019-01-30T19:28:16.343Z,1.20
2019-01-30T19:30:45.765Z,1.20
2019-01-30T19:33:14.683Z,1.20
2019-01-30T19:35:43.456Z,1.20
2019-01-30T19:38:12.805Z,1.20
2019-01-30T19:40:41.677Z,1.20
2019-01-30T19:43:10.796Z,1.20
2019-01-30T19:45:39.807Z,1.20
2019-01-30T19:48:09.288Z,1.20
2019-01-30T19:50:38.028Z,1.20
2019-01-30T19:53:08.994Z,1.20
2019-01-30T19:55:38.494Z,1.10
2019-01-30T19:58:07.584Z,1.00
2019-01-30T20:00:59.284Z,1.00
2019-01-30T20:03:32.540Z,1.10
2019-01-30T20:06:01.318Z,1.10
2019-01-30T20:08:31.471Z,1.10
2019-01-30T20:11:00.286Z,1.10
2019-01-30T20:13:29.114Z,1.10
2019-01-30T20:15:58.440Z,1.10
2019-01-30T20:18:27.483Z,1.00
2019-01-30T20:20:56.640Z,1.00
2019-01-30T20:23:25.444Z,1.00
2019-01-30T20:25:54.580Z,1.00
2019-01-30T20:28:23.347Z,1.00
2019-01-30T20:30:52.642Z,1.00
2019-01-30T20:33:21.487Z,1.00
2019-01-30T20:35:50.249Z,1.10
2019-01-30T20:38:19.247Z,1.00
2019-01-30T20:40:48.432Z,1.00
2019-01-30T20:43:17.233Z,1.00
2019-01-30T20:45:46.519Z,0.90
2019-01-30T20:48:15.562Z,0.90
2019-01-30T20:50:46.234Z,0.90
2019-01-30T20:53:15.245Z,0.90
2019-01-30T20:55:44.086Z,0.90
2019-01-30T20:58:12.891Z,0.90
2019-01-30T21:00:41.916Z,0.90
2019-01-30T21:03:10.960Z,1.00
2019-01-30T21:05:39.714Z,0.90
2019-01-30T21:08:08.634Z,0.90
2019-01-30T21:10:42.342Z,0.90
2019-01-30T21:13:13.164Z,0.90
2019-01-30T21:15:42.210Z,0.90
2019-01-30T21:18:11.295Z,0.90
2019-01-30T21:20:40.409Z,0.90
2019-01-30T21:23:09.302Z,0.90
2019-01-30T21:25:38.265Z,0.90
2019-01-30T21:28:07.179Z,0.90
2019-01-30T21:30:38.891Z,0.90
2019-01-30T21:33:07.894Z,0.90
2019-01-30T21:35:36.683Z,1.00
2019-01-30T21:38:06.537Z,1.00
2019-01-30T21:40:35.359Z,0.90
2019-01-30T21:43:05.054Z,1.00
2019-01-30T21:45:34.001Z,1.00
2019-01-30T21:48:02.800Z,0.90
2019-01-30T21:50:31.964Z,0.90
2019-01-30T21:53:01.008Z,0.90
2019-01-30T21:55:29.809Z,1.00
2019-01-30T21:57:58.729Z,1.00
2019-01-30T22:00:29.830Z,1.00
2019-01-30T22:02:58.775Z,1.00
2019-01-30T22:05:27.957Z,1.00
2019-01-30T22:08:00.873Z,1.00
2019-01-30T22:10:29.722Z,1.00
2019-01-30T22:12:58.700Z,1.00
2019-01-30T22:15:29.121Z,1.10
2019-01-30T22:17:57.863Z,1.10
2019-01-30T22:20:27.358Z,1.20
2019-01-30T22:22:56.511Z,1.20
2019-01-30T22:25:26.546Z,1.30
2019-01-30T22:27:55.606Z,1.40
2019-01-30T22:30:34.090Z,1.40
2019-01-30T22:33:03.978Z,1.40
2019-01-30T22:35:33.097Z,1.50
2019-01-30T22:38:12.259Z,1.40
2019-01-30T22:40:32.488Z,1.50
2019-01-30T22:43:01.235Z,1.50
2019-01-30T22:45:30.075Z,1.50
2019-01-30T22:47:58.858Z,1.50
2019-01-30T22:50:27.990Z,1.50
2019-01-30T22:52:57.020Z,1.50
2019-01-30T22:55:25.910Z,1.50
2019-01-30T22:57:54.642Z,1.50
2019-01-30T23:00:59.136Z,1.50
2019-01-30T23:03:56.592Z,1.50
2019-01-30T23:07:08.756Z,1.50
2019-01-30T23:10:17.334Z,1.50
2019-01-30T23:13:22.223Z,1.50
2019-01-30T23:16:20.102Z,1.50
2019-01-30T23:18:58.242Z,1.50
2019-01-30T23:21:33.801Z,1.50
2019-01-30T23:24:25.668Z,1.50
2019-01-30T23:27:20.655Z,1.40
2019-01-30T23:30:39.731Z,1.50
2019-01-30T23:33:37.215Z,1.40
2019-01-30T23:36:42.352Z,1.40
2019-01-30T23:40:10.679Z,1.50
2019-01-30T23:43:05.303Z,1.50
2019-01-30T23:45:52.677Z,1.50
2019-01-30T23:48:46.179Z,1.40
2019-01-30T23:51:53.635Z,1.40
2019-01-30T23:54:46.755Z,1.40
2019-01-30T23:57:40.007Z,1.40
